sensor_id;sensor_type;location;lat;lon;timestamp;pressure;altitude;pressure_sealevel;temperature;humidity
59417;BME280;45222;52.458;20.914;2024-02-21T00:02:07;101122.39;;;2.96;87.15
59417;BME280;45222;52.458;20.914;2024-02-21T00:05:54;101121.48;;;2.99;87.44
59417;BME280;45222;52.458;20.914;2024-02-21T00:09:42;101115.71;;;2.96;87.55
59417;BME280;45222;52.458;20.914;2024-02-21T00:13:30;101119.95;;;2.92;87.48
59417;BME280;45222;52.458;20.914;2024-02-21T00:17:17;101116.98;;;2.86;87.36
59417;BME280;45222;52.458;20.914;2024-02-21T00:21:05;101119.80;;;2.84;87.47
59417;BME280;45222;52.458;20.914;2024-02-21T00:24:53;101117.00;;;2.84;87.58
59417;BME280;45222;52.458;20.914;2024-02-21T00:28:40;101114.70;;;2.85;87.91
59417;BME280;45222;52.458;20.914;2024-02-21T00:32:28;101111.90;;;2.85;88.05
59417;BME280;45222;52.458;20.914;2024-02-21T00:36:15;101108.04;;;2.83;87.97
59417;BME280;45222;52.458;20.914;2024-02-21T00:40:03;101107.19;;;2.79;87.66
59417;BME280;45222;52.458;20.914;2024-02-21T00:43:52;101109.68;;;2.67;87.48
59417;BME280;45222;52.458;20.914;2024-02-21T00:47:39;101112.19;;;2.57;87.53
59417;BME280;45222;52.458;20.914;2024-02-21T00:51:27;101107.13;;;2.49;87.87
59417;BME280;45222;52.458;20.914;2024-02-21T00:55:15;101105.90;;;2.46;88.43
59417;BME280;45222;52.458;20.914;2024-02-21T00:59:02;101100.30;;;2.44;88.83
59417;BME280;45222;52.458;20.914;2024-02-21T01:02:50;101095.38;;;2.46;89.06
59417;BME280;45222;52.458;20.914;2024-02-21T01:06:37;101091.16;;;2.48;89.16
59417;BME280;45222;52.458;20.914;2024-02-21T01:10:26;101082.02;;;2.50;89.16
59417;BME280;45222;52.458;20.914;2024-02-21T01:14:14;101077.07;;;2.55;89.21
59417;BME280;45222;52.458;20.914;2024-02-21T01:18:02;101076.88;;;2.62;89.32
59417;BME280;45222;52.458;20.914;2024-02-21T01:21:49;101081.23;;;2.68;89.54
59417;BME280;45222;52.458;20.914;2024-02-21T01:25:37;101083.66;;;2.72;89.63
59417;BME280;45222;52.458;20.914;2024-02-21T01:29:25;101089.11;;;2.75;89.61
59417;BME280;45222;52.458;20.914;2024-02-21T01:33:12;101090.34;;;2.76;89.56
59417;BME280;45222;52.458;20.914;2024-02-21T01:37:00;101086.27;;;2.80;89.60
59417;BME280;45222;52.458;20.914;2024-02-21T01:40:50;101080.65;;;2.84;89.74
59417;BME280;45222;52.458;20.914;2024-02-21T01:44:38;101076.75;;;2.88;90.02
59417;BME280;45222;52.458;20.914;2024-02-21T01:48:26;101073.20;;;2.93;90.35
59417;BME280;45222;52.458;20.914;2024-02-21T01:52:14;101075.84;;;2.94;90.71
59417;BME280;45222;52.458;20.914;2024-02-21T01:56:03;101077.21;;;2.99;90.59
59417;BME280;45222;52.458;20.914;2024-02-21T01:59:52;101073.48;;;3.04;90.59
59417;BME280;45222;52.458;20.914;2024-02-21T02:03:40;101072.40;;;3.11;90.68
59417;BME280;45222;52.458;20.914;2024-02-21T02:07:30;101071.29;;;3.20;90.96
59417;BME280;45222;52.458;20.914;2024-02-21T02:11:22;101072.98;;;3.29;91.20
59417;BME280;45222;52.458;20.914;2024-02-21T02:15:09;101071.50;;;3.38;91.40
59417;BME280;45222;52.458;20.914;2024-02-21T02:18:57;101071.48;;;3.41;91.69
59417;BME280;45222;52.458;20.914;2024-02-21T02:22:47;101070.23;;;3.43;91.36
59417;BME280;45222;52.458;20.914;2024-02-21T02:26:36;101066.52;;;3.45;91.35
59417;BME280;45222;52.458;20.914;2024-02-21T02:30:24;101063.69;;;3.49;91.30
